createdAt,value
2023-05-19T00:00:23.054Z,101236.13
2023-05-19T00:02:51.262Z,101240.59
2023-05-19T00:05:19.943Z,101234.38
2023-05-19T00:07:48.187Z,101242.38
2023-05-19T00:10:17.586Z,101244.16
2023-05-19T00:12:45.891Z,101237.94
2023-05-19T00:15:16.252Z,101233.50
2023-05-19T00:17:43.918Z,101237.91
2023-05-19T00:20:12.818Z,101240.59
2023-05-19T00:22:47.342Z,101231.66
2023-05-19T00:25:15.867Z,101233.50
2023-05-19T00:27:48.621Z,101237.03
2023-05-19T00:30:18.512Z,101224.59
2023-05-19T00:32:49.263Z,101226.34
2023-05-19T00:35:17.795Z,101223.69
2023-05-19T00:37:45.529Z,101222.78
2023-05-19T00:40:13.179Z,101226.34
2023-05-19T00:42:41.240Z,101223.66
2023-05-19T00:45:09.833Z,101217.41
2023-05-19T00:47:38.896Z,101228.09
2023-05-19T00:50:07.522Z,101231.66
2023-05-19T00:52:35.654Z,101227.19
2023-05-19T00:55:03.512Z,101222.75
2023-05-19T00:57:31.510Z,101221.88
2023-05-19T00:59:59.101Z,101232.56
2023-05-19T01:02:29.826Z,101229.84
2023-05-19T01:04:59.584Z,101228.06
2023-05-19T01:07:27.385Z,101235.25
2023-05-19T01:09:55.131Z,101235.22
2023-05-19T01:12:22.618Z,101228.13
2023-05-19T01:14:50.300Z,101225.47
2023-05-19T01:17:23.592Z,101226.34
2023-05-19T01:20:06.595Z,101221.03
2023-05-19T01:22:43.754Z,101227.25
2023-05-19T01:25:38.741Z,101229.03
2023-05-19T01:28:32.322Z,101225.50
2023-05-19T01:31:02.093Z,101214.81
2023-05-19T01:33:31.658Z,101217.50
2023-05-19T01:36:00.771Z,101219.28
2023-05-19T01:38:29.431Z,101224.59
2023-05-19T01:40:58.409Z,101219.28
2023-05-19T01:43:29.329Z,101213.91
2023-05-19T01:45:58.788Z,101222.84
2023-05-19T01:48:28.334Z,101221.94
2023-05-19T01:50:58.953Z,101221.06
2023-05-19T01:53:26.519Z,101228.16
2023-05-19T01:55:56.207Z,101224.63
2023-05-19T01:58:30.642Z,101220.16
2023-05-19T02:01:01.520Z,101221.94
2023-05-19T02:03:55.500Z,101221.97
2023-05-19T02:06:31.169Z,101221.94
2023-05-19T02:09:01.856Z,101231.72
2023-05-19T02:11:37.411Z,101226.41
2023-05-19T02:14:10.159Z,101231.72
2023-05-19T02:16:37.643Z,101229.06
2023-05-19T02:19:06.718Z,101221.94
2023-05-19T02:21:34.572Z,101225.50
2023-05-19T02:24:02.136Z,101221.06
2023-05-19T02:26:29.794Z,101225.53
2023-05-19T02:28:57.311Z,101226.41
2023-05-19T02:31:25.028Z,101225.50
2023-05-19T02:33:54.423Z,101222.84
2023-05-19T02:36:26.499Z,101216.63
2023-05-19T02:38:54.024Z,101213.03
2023-05-19T02:41:23.228Z,101219.28
2023-05-19T02:43:50.939Z,101218.38
2023-05-19T02:46:18.564Z,101202.38
2023-05-19T02:48:48.488Z,101209.47
2023-05-19T02:51:16.043Z,101213.94
2023-05-19T02:53:44.962Z,101210.38
2023-05-19T02:56:14.633Z,101213.06
2023-05-19T02:58:43.089Z,101209.47
2023-05-19T03:01:11.024Z,101208.63
2023-05-19T03:03:38.935Z,101209.47
2023-05-19T03:06:08.753Z,101205.03
2023-05-19T03:08:36.553Z,101211.28
2023-05-19T03:11:05.477Z,101210.38
2023-05-19T03:13:34.906Z,101211.28
2023-05-19T03:16:03.446Z,101211.28
2023-05-19T03:18:31.046Z,101212.16
2023-05-19T03:20:58.574Z,101209.50
2023-05-19T03:23:26.619Z,101213.00
2023-05-19T03:25:55.933Z,101211.13
2023-05-19T03:28:27.237Z,101207.72
2023-05-19T03:30:54.912Z,101207.69
2023-05-19T03:33:23.899Z,101210.31
2023-05-19T03:35:53.111Z,101213.03
2023-05-19T03:38:20.821Z,101214.81
2023-05-19T03:40:48.412Z,101223.69
2023-05-19T03:43:16.320Z,101221.94
2023-05-19T03:45:45.396Z,101220.16
2023-05-19T03:48:13.729Z,101214.81
2023-05-19T03:50:41.383Z,101222.81
2023-05-19T03:53:08.965Z,101227.28
2023-05-19T03:55:37.246Z,101218.34
2023-05-19T03:58:04.834Z,101228.16
2023-05-19T04:00:32.670Z,101225.47
2023-05-19T04:03:01.945Z,101216.59
2023-05-19T04:05:29.590Z,101222.81
2023-05-19T04:07:57.298Z,101220.16
2023-05-19T04:10:24.822Z,101229.91
2023-05-19T04:12:52.719Z,101233.50
2023-05-19T04:15:20.282Z,101240.63
2023-05-19T04:17:47.909Z,101237.03
2023-05-19T04:20:16.787Z,101230.84
2023-05-19T04:22:44.290Z,101233.50
2023-05-19T04:25:11.914Z,101236.16
2023-05-19T04:27:39.785Z,101233.47
2023-05-19T04:30:08.564Z,101230.84
2023-05-19T04:32:37.437Z,101237.06
2023-05-19T04:35:05.766Z,101237.97
2023-05-19T04:37:38.374Z,101237.09
2023-05-19T04:40:09.326Z,101234.38
2023-05-19T04:42:36.843Z,101228.13
2023-05-19T04:45:05.556Z,101239.72
2023-05-19T04:47:36.847Z,101227.97
2023-05-19T04:50:05.061Z,101226.34
2023-05-19T04:52:34.063Z,101223.66
2023-05-19T04:55:01.619Z,101220.00
2023-05-19T04:57:29.163Z,101229.03
2023-05-19T04:59:59.898Z,101228.09
2023-05-19T05:02:28.232Z,101229.75
2023-05-19T05:04:56.603Z,101230.38
2023-05-19T05:07:24.211Z,101233.38
2023-05-19T05:09:53.081Z,101231.03
2023-05-19T05:12:21.119Z,101232.38
2023-05-19T05:14:49.853Z,101237.44
2023-05-19T05:17:17.963Z,101226.91
2023-05-19T05:19:46.064Z,101229.19
2023-05-19T05:22:14.310Z,101229.41
2023-05-19T05:24:42.269Z,101233.63
2023-05-19T05:27:11.551Z,101232.06
2023-05-19T05:29:39.114Z,101243.47
2023-05-19T05:32:07.920Z,101235.81
2023-05-19T05:34:35.939Z,101229.56
2023-05-19T05:37:03.465Z,101233.31
2023-05-19T05:39:31.794Z,101223.97
2023-05-19T05:41:59.320Z,101236.94
2023-05-19T05:44:28.182Z,101232.50
2023-05-19T05:46:56.215Z,101235.00
2023-05-19T05:49:24.288Z,101234.38
2023-05-19T05:52:04.976Z,101227.06
2023-05-19T05:54:34.039Z,101241.16
2023-05-19T05:57:02.536Z,101232.09
2023-05-19T05:59:31.395Z,101227.94
2023-05-19T06:01:59.095Z,101236.06
2023-05-19T06:04:26.678Z,101234.63
2023-05-19T06:07:00.944Z,101227.91
2023-05-19T06:09:29.767Z,101225.91
2023-05-19T06:11:59.475Z,101234.38
2023-05-19T06:14:27.061Z,101233.28
2023-05-19T06:16:56.262Z,101234.03
2023-05-19T06:19:25.524Z,101217.84
2023-05-19T06:21:55.495Z,101231.66
2023-05-19T06:24:23.007Z,101230.75
2023-05-19T06:26:50.542Z,101239.84
2023-05-19T06:29:18.186Z,101239.88
2023-05-19T06:31:46.577Z,101235.00
2023-05-19T06:34:17.615Z,101237.94
2023-05-19T06:36:45.269Z,101235.59
2023-05-19T06:39:12.814Z,101244.06
2023-05-19T06:41:40.356Z,101243.06
2023-05-19T06:44:08.374Z,101251.28
2023-05-19T06:46:36.112Z,101246.84
2023-05-19T06:49:03.666Z,101243.94
2023-05-19T06:51:32.721Z,101243.44
2023-05-19T06:54:00.242Z,101246.88
2023-05-19T06:56:27.744Z,101246.88
2023-05-19T06:58:55.452Z,101246.81
2023-05-19T07:01:23.153Z,101241.66
2023-05-19T07:03:50.891Z,101247.19
2023-05-19T07:06:18.502Z,101242.78
2023-05-19T07:08:47.359Z,101248.34
2023-05-19T07:11:15.312Z,101246.09
2023-05-19T07:13:42.860Z,101249.06
2023-05-19T07:16:10.649Z,101239.31
2023-05-19T07:18:41.305Z,101244.00
2023-05-19T07:21:08.925Z,101249.84
2023-05-19T07:23:36.553Z,101239.47
2023-05-19T07:26:05.888Z,101238.44
2023-05-19T07:28:34.289Z,101229.38
2023-05-19T07:31:02.397Z,101236.34
2023-05-19T07:33:30.000Z,101237.31
2023-05-19T07:35:57.521Z,101232.75
2023-05-19T07:38:25.098Z,101218.06
2023-05-19T07:40:52.631Z,101223.16
2023-05-19T07:43:21.470Z,101213.69
2023-05-19T07:45:49.037Z,101212.44
2023-05-19T07:48:18.707Z,101209.84
2023-05-19T07:50:46.680Z,101209.03
2023-05-19T07:53:14.383Z,101210.44
2023-05-19T07:55:42.125Z,101219.25
2023-05-19T07:58:09.780Z,101208.34
2023-05-19T08:00:38.657Z,101220.19
2023-05-19T08:03:06.340Z,101214.97
2023-05-19T08:05:35.359Z,101217.94
2023-05-19T08:08:02.953Z,101219.19
2023-05-19T08:10:30.762Z,101210.63
2023-05-19T08:12:58.627Z,101212.44
2023-05-19T08:15:26.421Z,101212.81
2023-05-19T08:17:55.484Z,101197.72
2023-05-19T08:20:24.389Z,101207.88
2023-05-19T08:22:51.989Z,101195.31
2023-05-19T08:25:19.786Z,101201.88
2023-05-19T08:27:47.384Z,101206.78
2023-05-19T08:30:14.926Z,101201.00
2023-05-19T08:32:42.610Z,101200.50
2023-05-19T08:35:12.021Z,101202.38
2023-05-19T08:37:39.584Z,101182.72
2023-05-19T08:40:08.916Z,101185.53
2023-05-19T08:42:36.478Z,101179.16
2023-05-19T08:45:04.510Z,101184.56
2023-05-19T08:47:33.092Z,101185.63
2023-05-19T08:50:07.429Z,101190.78
2023-05-19T08:52:47.844Z,101175.63
2023-05-19T08:55:22.036Z,101178.47
2023-05-19T08:57:49.675Z,101172.06
2023-05-19T09:00:17.685Z,101183.13
2023-05-19T09:02:55.068Z,101167.59
2023-05-19T09:05:28.935Z,101168.16
2023-05-19T09:07:57.987Z,101167.34
2023-05-19T09:10:27.116Z,101163.66
2023-05-19T09:12:55.444Z,101169.28
2023-05-19T09:15:27.944Z,101164.25
2023-05-19T09:18:06.899Z,101155.91
2023-05-19T09:20:38.084Z,101155.69
2023-05-19T09:23:07.802Z,101167.59
2023-05-19T09:25:35.558Z,101151.69
2023-05-19T09:28:03.337Z,101163.19
2023-05-19T09:30:31.004Z,101153.97
2023-05-19T09:32:58.928Z,101155.22
2023-05-19T09:35:26.463Z,101158.84
2023-05-19T09:37:54.066Z,101156.34
2023-05-19T09:40:22.909Z,101151.72
2023-05-19T09:42:50.553Z,101144.66
2023-05-19T09:45:18.161Z,101147.03
2023-05-19T09:47:45.704Z,101148.25
2023-05-19T09:50:14.115Z,101145.28
2023-05-19T09:52:44.106Z,101139.94
2023-05-19T09:55:12.752Z,101137.47
2023-05-19T09:57:41.825Z,101128.88
2023-05-19T10:00:14.429Z,101140.13
2023-05-19T10:02:44.673Z,101138.78
2023-05-19T10:05:16.739Z,101131.03
2023-05-19T10:07:48.507Z,101131.06
2023-05-19T10:10:16.638Z,101125.84
2023-05-19T10:12:45.979Z,101124.03
2023-05-19T10:15:15.925Z,101121.59
2023-05-19T10:17:44.525Z,101114.34
2023-05-19T10:20:14.060Z,101110.94
2023-05-19T10:22:41.970Z,101105.75
2023-05-19T10:25:11.165Z,101111.00
2023-05-19T10:27:44.090Z,101105.63
2023-05-19T10:30:16.590Z,101113.66
2023-05-19T10:32:46.555Z,101106.19
2023-05-19T10:35:29.303Z,101103.28
2023-05-19T10:38:07.034Z,101101.63
2023-05-19T10:40:38.337Z,101089.13
2023-05-19T10:43:16.849Z,101088.78
2023-05-19T10:45:49.217Z,101095.41
2023-05-19T10:48:17.338Z,101082.72
2023-05-19T10:50:46.566Z,101098.69
2023-05-19T10:53:18.152Z,101105.78
2023-05-19T10:55:47.474Z,101099.94
2023-05-19T10:58:15.122Z,101091.16
2023-05-19T11:00:42.675Z,101089.88
2023-05-19T11:03:15.593Z,101088.75
2023-05-19T11:05:45.424Z,101085.69
2023-05-19T11:08:13.623Z,101091.75
2023-05-19T11:10:44.929Z,101086.16
2023-05-19T11:13:20.318Z,101087.91
2023-05-19T11:15:47.894Z,101081.00
2023-05-19T11:18:16.874Z,101088.19
2023-05-19T11:20:44.653Z,101083.59
2023-05-19T11:23:18.051Z,101086.59
2023-05-19T11:25:48.030Z,101076.09
2023-05-19T11:28:19.275Z,101089.00
2023-05-19T11:30:50.456Z,101079.22
2023-05-19T11:33:20.447Z,101070.41
2023-05-19T11:35:49.354Z,101079.41
2023-05-19T11:38:17.896Z,101068.25
2023-05-19T11:40:45.850Z,101064.06
2023-05-19T11:43:13.360Z,101057.88
2023-05-19T11:45:40.910Z,101064.78
2023-05-19T11:48:12.286Z,101062.22
2023-05-19T11:50:44.049Z,101047.50
2023-05-19T11:53:13.478Z,101054.69
2023-05-19T11:55:43.437Z,101060.31
2023-05-19T11:58:11.138Z,101046.31
2023-05-19T12:00:40.325Z,101052.56
2023-05-19T12:03:09.200Z,101041.78
2023-05-19T12:05:41.765Z,101054.88
2023-05-19T12:08:12.185Z,101051.63
2023-05-19T12:10:40.535Z,101052.94
2023-05-19T12:13:09.302Z,101047.00
2023-05-19T12:15:37.589Z,101043.44
2023-05-19T12:18:05.640Z,101035.13
2023-05-19T12:20:35.994Z,101043.22
2023-05-19T12:23:04.331Z,101047.47
2023-05-19T12:25:33.585Z,101047.47
2023-05-19T12:28:03.384Z,101048.09
2023-05-19T12:30:32.898Z,101039.06
2023-05-19T12:33:01.326Z,101030.00
2023-05-19T12:35:29.654Z,101048.44
2023-05-19T12:37:57.695Z,101024.75
2023-05-19T12:40:26.176Z,101017.91
2023-05-19T12:42:58.876Z,101034.28
2023-05-19T12:45:28.143Z,101023.06
2023-05-19T12:47:55.938Z,101026.81
2023-05-19T12:50:31.154Z,101033.25
2023-05-19T12:52:59.850Z,101037.06
2023-05-19T12:55:28.015Z,101046.03
2023-05-19T12:57:58.122Z,101040.53
2023-05-19T13:00:28.989Z,101036.94
2023-05-19T13:02:59.752Z,101036.03
2023-05-19T13:05:28.224Z,101026.81
2023-05-19T13:07:57.030Z,101020.91
2023-05-19T13:10:26.933Z,101010.47
2023-05-19T13:12:55.748Z,101020.09
2023-05-19T13:15:26.204Z,101010.31
2023-05-19T13:17:55.446Z,101011.44
2023-05-19T13:20:23.710Z,101015.38
2023-05-19T13:22:52.752Z,101006.66
2023-05-19T13:25:21.395Z,101008.38
2023-05-19T13:27:49.450Z,101015.53
2023-05-19T13:30:17.211Z,101009.44
2023-05-19T13:32:46.267Z,101004.66
2023-05-19T13:35:14.426Z,101001.91
2023-05-19T13:37:42.415Z,101005.16
2023-05-19T13:40:10.802Z,101004.50
2023-05-19T13:42:38.546Z,101004.66
2023-05-19T13:45:06.978Z,101004.72
2023-05-19T13:47:34.546Z,101005.75
2023-05-19T13:50:04.375Z,100999.94
2023-05-19T13:52:32.467Z,101000.47
2023-05-19T13:55:00.218Z,101002.06
2023-05-19T13:57:27.805Z,101004.78
2023-05-19T14:00:02.656Z,100994.72
2023-05-19T14:02:30.898Z,100995.81
2023-05-19T14:04:58.688Z,100995.63
2023-05-19T14:07:28.249Z,100995.75
2023-05-19T14:09:56.309Z,100997.25
2023-05-19T14:12:33.918Z,100988.41
2023-05-19T14:15:09.154Z,100981.25
2023-05-19T14:17:37.476Z,100983.44
2023-05-19T14:20:06.185Z,100981.03
2023-05-19T14:22:35.196Z,100985.28
2023-05-19T14:25:03.040Z,100985.22
2023-05-19T14:27:30.621Z,100986.31
2023-05-19T14:29:58.357Z,100985.19
2023-05-19T14:32:28.625Z,100993.91
2023-05-19T14:34:57.739Z,100979.19
2023-05-19T14:37:26.559Z,100985.59
2023-05-19T14:39:55.853Z,100985.03
2023-05-19T14:42:23.459Z,100994.88
2023-05-19T14:44:51.015Z,100992.50
2023-05-19T14:47:18.569Z,100990.22
2023-05-19T14:49:46.087Z,100987.84
2023-05-19T14:52:13.661Z,100979.53
2023-05-19T14:54:41.379Z,100984.53
2023-05-19T14:57:10.304Z,100984.88
2023-05-19T14:59:38.119Z,100985.94
2023-05-19T15:02:06.117Z,100983.28
2023-05-19T15:04:33.682Z,100971.38
2023-05-19T15:09:31.753Z,100967.03
2023-05-19T15:12:01.101Z,100970.44
2023-05-19T15:14:31.050Z,100972.50
2023-05-19T15:16:59.164Z,100967.69
2023-05-19T15:19:27.097Z,100973.00
2023-05-19T15:21:54.987Z,100973.31
2023-05-19T15:24:22.599Z,100964.69
2023-05-19T15:26:50.167Z,100966.50
2023-05-19T15:29:17.683Z,100966.53
2023-05-19T15:31:46.735Z,100972.47
2023-05-19T15:34:14.397Z,100979.03
2023-05-19T15:36:41.923Z,100974.00
2023-05-19T15:39:09.747Z,100964.56
2023-05-19T15:41:37.324Z,100979.03
2023-05-19T15:44:06.684Z,100980.56
2023-05-19T15:46:34.445Z,100980.88
2023-05-19T15:49:03.795Z,100970.13
2023-05-19T15:51:31.584Z,100970.75
2023-05-19T15:53:59.154Z,100977.31
2023-05-19T15:56:26.692Z,100968.72
2023-05-19T15:58:54.265Z,100970.53
2023-05-19T16:01:22.241Z,100961.78
2023-05-19T16:03:49.929Z,100967.75
2023-05-19T16:06:18.833Z,100974.66
2023-05-19T16:08:46.398Z,100954.81
2023-05-19T16:11:14.444Z,100958.75
2023-05-19T16:13:41.990Z,100951.34
2023-05-19T16:16:09.642Z,100959.06
2023-05-19T16:18:37.189Z,100951.94
2023-05-19T16:21:05.052Z,100944.63
2023-05-19T16:23:33.966Z,100946.59
2023-05-19T16:26:01.521Z,100956.06
2023-05-19T16:28:29.162Z,100952.81
2023-05-19T16:30:58.335Z,100948.13
2023-05-19T16:33:25.965Z,100957.03
2023-05-19T16:35:53.585Z,100950.75
2023-05-19T16:38:21.182Z,100948.88
2023-05-19T16:40:50.139Z,100942.47
2023-05-19T16:43:17.679Z,100942.75
2023-05-19T16:45:45.246Z,100950.63
2023-05-19T16:48:12.906Z,100946.16
2023-05-19T16:50:40.702Z,100940.13
2023-05-19T16:53:08.363Z,100959.53
2023-05-19T16:55:35.950Z,100953.00
2023-05-19T16:58:04.777Z,100960.56
2023-05-19T17:00:32.671Z,100947.47
2023-05-19T17:03:00.438Z,100951.66
2023-05-19T17:05:28.184Z,100947.16
2023-05-19T17:07:55.760Z,100942.19
2023-05-19T17:10:23.395Z,100954.00
2023-05-19T17:12:50.894Z,100943.06
2023-05-19T17:15:19.771Z,100940.25
2023-05-19T17:17:47.324Z,100941.47
2023-05-19T17:20:14.974Z,100937.84
2023-05-19T17:22:42.535Z,100939.56
2023-05-19T17:25:11.161Z,100935.59
2023-05-19T17:27:38.861Z,100941.75
2023-05-19T17:30:07.890Z,100936.75
2023-05-19T17:32:39.475Z,100944.63
2023-05-19T17:35:08.338Z,100939.03
2023-05-19T17:37:36.366Z,100944.91
2023-05-19T17:40:04.223Z,100943.53
2023-05-19T17:42:31.899Z,100942.66
2023-05-19T17:44:59.620Z,100942.59
2023-05-19T17:47:27.272Z,100943.50
2023-05-19T17:49:56.155Z,100939.38
2023-05-19T17:52:25.683Z,100943.25
2023-05-19T17:54:53.811Z,100939.13
2023-05-19T17:57:25.824Z,100937.34
2023-05-19T17:59:53.883Z,100943.06
2023-05-19T18:02:21.845Z,100949.97
2023-05-19T18:04:49.915Z,100940.81
2023-05-19T18:07:19.375Z,100945.84
2023-05-19T18:09:47.558Z,100945.50
2023-05-19T18:12:15.494Z,100951.56
2023-05-19T18:14:43.019Z,100946.81
2023-05-19T18:17:10.615Z,100948.22
2023-05-19T18:19:38.182Z,100949.78
2023-05-19T18:22:06.276Z,100951.66
2023-05-19T18:24:35.449Z,100944.44
2023-05-19T18:27:03.306Z,100950.38
2023-05-19T18:29:31.093Z,100940.13
2023-05-19T18:31:58.674Z,100947.56
2023-05-19T18:34:27.664Z,100950.97
2023-05-19T18:36:55.201Z,100951.94
2023-05-19T18:39:22.835Z,100945.34
2023-05-19T18:41:51.742Z,100947.13
2023-05-19T18:44:19.444Z,100951.97
2023-05-19T18:46:46.973Z,100957.09
2023-05-19T18:49:14.577Z,100952.56
2023-05-19T18:51:42.502Z,100958.31
2023-05-19T18:54:12.336Z,100960.09
2023-05-19T18:56:42.682Z,100965.13
2023-05-19T18:59:11.677Z,100962.22
2023-05-19T19:01:39.452Z,100967.41
2023-05-19T19:04:07.223Z,100963.94
2023-05-19T19:06:34.980Z,100974.84
2023-05-19T19:09:03.393Z,100972.84
2023-05-19T19:11:31.320Z,100969.66
2023-05-19T19:13:58.991Z,100976.28
2023-05-19T19:16:28.106Z,100981.34
2023-05-19T19:18:55.761Z,100982.81
2023-05-19T19:21:24.077Z,100986.50
2023-05-19T19:23:53.386Z,100994.28
2023-05-19T19:26:21.763Z,100987.44
2023-05-19T19:28:49.311Z,100985.19
2023-05-19T19:31:16.893Z,100984.50
2023-05-19T19:33:45.842Z,100993.22
2023-05-19T19:36:13.569Z,101003.34
2023-05-19T19:38:41.275Z,101002.59
2023-05-19T19:41:08.934Z,101005.72
2023-05-19T19:43:36.474Z,101000.69
2023-05-19T19:46:04.707Z,101005.13
2023-05-19T19:48:32.372Z,101012.03
2023-05-19T19:51:01.581Z,101013.56
2023-05-19T19:53:29.151Z,101007.31
2023-05-19T19:55:58.246Z,101008.31
2023-05-19T19:58:26.627Z,101012.16
2023-05-19T20:00:57.305Z,101025.78
2023-05-19T20:03:26.116Z,101011.34
2023-05-19T20:05:55.306Z,101023.53
2023-05-19T20:08:24.517Z,101020.03
2023-05-19T20:10:52.354Z,101014.69
2023-05-19T20:13:20.034Z,101026.59
2023-05-19T20:15:48.102Z,101019.56
2023-05-19T20:18:15.809Z,101019.50
2023-05-19T20:20:43.480Z,101021.09
2023-05-19T20:23:13.237Z,101027.53
2023-05-19T20:25:57.859Z,101030.09
2023-05-19T20:28:30.270Z,101033.34
2023-05-19T20:30:57.844Z,101039.81
2023-05-19T20:33:25.582Z,101040.59
2023-05-19T20:35:53.136Z,101036.16
2023-05-19T20:38:20.649Z,101038.88
2023-05-19T20:40:49.794Z,101040.81
2023-05-19T20:43:17.592Z,101042.47
2023-05-19T20:45:45.539Z,101037.31
2023-05-19T20:48:13.151Z,101038.75
2023-05-19T20:50:41.146Z,101033.56
2023-05-19T20:53:08.730Z,101033.34
2023-05-19T20:55:37.881Z,101029.19
2023-05-19T20:58:06.874Z,101040.28
2023-05-19T21:00:34.592Z,101040.28
2023-05-19T21:03:02.523Z,101038.66
2023-05-19T21:05:30.345Z,101041.31
2023-05-19T21:07:57.952Z,101040.22
2023-05-19T21:10:25.720Z,101046.88
2023-05-19T21:12:53.254Z,101036.09
2023-05-19T21:15:22.136Z,101041.97
2023-05-19T21:17:49.698Z,101046.69
2023-05-19T21:20:17.319Z,101049.72
2023-05-19T21:22:44.833Z,101047.16
2023-05-19T21:25:12.702Z,101048.78
2023-05-19T21:27:40.556Z,101048.03
2023-05-19T21:30:09.667Z,101056.31
2023-05-19T21:32:38.552Z,101060.25
2023-05-19T21:35:07.039Z,101060.06
2023-05-19T21:37:34.599Z,101050.06
2023-05-19T21:40:02.247Z,101065.16
2023-05-19T21:42:29.763Z,101060.25
2023-05-19T21:44:57.332Z,101063.28
2023-05-19T21:47:24.976Z,101061.63
2023-05-19T21:49:53.837Z,101064.53
2023-05-19T21:52:21.814Z,101063.88
2023-05-19T21:54:51.907Z,101067.59
2023-05-19T21:57:19.449Z,101062.38
2023-05-19T21:59:47.175Z,101070.47
2023-05-19T22:02:14.718Z,101068.03
2023-05-19T22:04:42.893Z,101075.00
2023-05-19T22:07:11.926Z,101069.38
2023-05-19T22:09:39.448Z,101072.47
2023-05-19T22:12:08.253Z,101074.78
2023-05-19T22:14:36.810Z,101068.69
2023-05-19T22:17:04.455Z,101063.28
2023-05-19T22:19:32.046Z,101066.75
2023-05-19T22:22:09.852Z,101064.91
2023-05-19T22:24:41.726Z,101070.78
2023-05-19T22:27:09.483Z,101073.59
2023-05-19T22:29:38.430Z,101075.44
2023-05-19T22:32:07.671Z,101071.38
2023-05-19T22:34:35.412Z,101074.22
2023-05-19T22:37:02.984Z,101073.22
2023-05-19T22:39:30.540Z,101068.22
2023-05-19T22:41:59.434Z,101072.34
2023-05-19T22:44:26.961Z,101066.94
2023-05-19T22:46:54.510Z,101074.44
2023-05-19T22:49:23.273Z,101077.78
2023-05-19T22:51:51.151Z,101074.94
2023-05-19T22:54:18.914Z,101071.50
2023-05-19T22:56:48.676Z,101075.78
2023-05-19T22:59:18.441Z,101068.28
2023-05-19T23:01:46.961Z,101069.19
2023-05-19T23:04:15.272Z,101073.56
2023-05-19T23:06:42.850Z,101075.78
2023-05-19T23:09:10.418Z,101076.56
2023-05-19T23:11:37.924Z,101071.09
2023-05-19T23:14:05.784Z,101066.41
2023-05-19T23:16:34.807Z,101070.28
2023-05-19T23:19:02.391Z,101068.34
2023-05-19T23:21:31.289Z,101071.06
2023-05-19T23:23:59.422Z,101078.13
2023-05-19T23:26:27.492Z,101078.44
2023-05-19T23:28:55.096Z,101074.56
2023-05-19T23:31:22.750Z,101081.66
2023-05-19T23:33:51.667Z,101072.97
2023-05-19T23:36:19.324Z,101078.13
2023-05-19T23:38:46.978Z,101084.06
2023-05-19T23:41:14.887Z,101080.59
2023-05-19T23:43:42.621Z,101073.78
2023-05-19T23:46:10.260Z,101073.19
2023-05-19T23:48:37.895Z,101071.19
2023-05-19T23:51:06.999Z,101073.59
2023-05-19T23:53:34.627Z,101075.69
2023-05-19T23:56:02.204Z,101080.69
2023-05-19T23:58:29.864Z,101076.00
